Time;durP1;ratioP1;P1;durP2;ratioP2;P2;SDS_P1;SDS_P2;PMS_P1;PMS_P2;Temp;Humidity;BMP_temperature;BMP_pressure;BME280_temperature;BME280_humidity;BME280_pressure;Samples;Min_cycle;Max_cycle;Signal;HPM_P1;HPM_P2
2023/03/19 00:00:22;;;;;;;11.17;10.43;;;12.70;99.90;;;;;;4917833;29;20470;-78
2023/03/19 00:02:51;;;;;;;10.73;9.83;;;12.70;99.90;;;;;;4919202;29;20496;-79
2023/03/19 00:05:22;;;;;;;11.10;10.20;;;12.70;99.90;;;;;;4916499;29;21088;-78
2023/03/19 00:07:50;;;;;;;11.27;10.23;;;12.70;99.90;;;;;;4918666;29;20459;-81
2023/03/19 00:10:19;;;;;;;10.80;10.03;;;12.60;99.90;;;;;;4920911;29;20457;-83
2023/03/19 00:12:47;;;;;;;10.90;9.93;;;12.70;99.90;;;;;;4921721;29;20494;-81
2023/03/19 00:15:15;;;;;;;10.70;10.00;;;12.70;99.90;;;;;;4902033;29;20461;-80
2023/03/19 00:17:43;;;;;;;10.90;10.20;;;12.70;99.90;;;;;;4918587;29;20486;-79
2023/03/19 00:20:13;;;;;;;10.53;9.80;;;12.70;99.90;;;;;;4915117;29;20451;-79
2023/03/19 00:22:43;;;;;;;10.93;10.00;;;12.70;99.90;;;;;;4915791;29;20462;-79
2023/03/19 00:25:11;;;;;;;11.13;10.37;;;12.60;99.90;;;;;;4916165;29;21006;-80
2023/03/19 00:27:40;;;;;;;10.40;9.60;;;12.60;99.90;;;;;;4913542;29;20471;-80
2023/03/19 00:30:10;;;;;;;9.90;9.30;;;12.60;99.90;;;;;;4913812;29;20999;-79
2023/03/19 00:32:39;;;;;;;11.00;10.10;;;12.60;99.90;;;;;;4916793;29;20456;-81
2023/03/19 00:35:08;;;;;;;10.90;10.00;;;12.70;99.90;;;;;;4900730;29;20460;-79
2023/03/19 00:37:37;;;;;;;10.27;9.60;;;12.60;99.90;;;;;;4920469;29;20471;-81
2023/03/19 00:40:09;;;;;;;9.80;9.20;;;12.60;99.90;;;;;;4921846;29;20484;-80
2023/03/19 00:42:37;;;;;;;9.33;8.73;;;12.70;99.90;;;;;;4921604;29;20504;-79
2023/03/19 00:45:06;;;;;;;10.40;9.40;;;12.80;99.90;;;;;;4921500;29;20492;-79
2023/03/19 00:47:34;;;;;;;10.53;9.70;;;12.70;99.90;;;;;;4917431;29;20458;-80
2023/03/19 00:50:03;;;;;;;10.33;9.50;;;12.70;99.90;;;;;;4920580;29;20475;-79
2023/03/19 00:52:31;;;;;;;9.67;9.17;;;12.70;99.90;;;;;;4905797;29;20906;-79
2023/03/19 00:54:59;;;;;;;9.00;8.60;;;12.70;99.90;;;;;;4924521;29;20504;-80
2023/03/19 00:57:29;;;;;;;9.33;8.80;;;12.70;99.90;;;;;;4921416;29;20471;-82
2023/03/19 00:59:57;;;;;;;9.60;9.10;;;12.70;99.90;;;;;;4923100;29;20464;-80
2023/03/19 01:02:25;;;;;;;9.10;8.60;;;12.70;99.90;;;;;;4925451;29;20466;-80
2023/03/19 01:04:54;;;;;;;9.70;9.10;;;12.70;99.90;;;;;;4925038;29;20496;-81
2023/03/19 01:07:22;;;;;;;10.73;9.83;;;12.90;99.90;;;;;;4927463;29;20458;-82
2023/03/19 01:09:50;;;;;;;10.37;9.70;;;12.90;99.90;;;;;;4921035;29;20555;-82
2023/03/19 01:12:19;;;;;;;12.43;11.20;;;13.00;99.90;;;;;;4926898;29;20464;-79
2023/03/19 01:14:48;;;;;;;11.47;10.77;;;13.00;99.90;;;;;;4924226;29;20478;-82
2023/03/19 01:17:16;;;;;;;11.67;10.67;;;12.90;99.90;;;;;;4926224;29;20455;-82
2023/03/19 01:19:44;;;;;;;11.23;10.47;;;12.90;99.90;;;;;;4907721;29;20487;-78
2023/03/19 01:22:15;;;;;;;11.80;10.93;;;12.80;99.90;;;;;;4918574;29;20467;-81
2023/03/19 01:24:43;;;;;;;10.90;10.10;;;12.90;99.90;;;;;;4920635;29;21015;-78
2023/03/19 01:27:11;;;;;;;10.43;9.47;;;12.80;99.90;;;;;;4922338;29;20531;-79
2023/03/19 01:29:39;;;;;;;9.13;8.70;;;12.90;99.90;;;;;;4920459;29;20467;-80
2023/03/19 01:32:09;;;;;;;7.00;6.70;;;13.00;99.90;;;;;;4923407;29;20469;-79
2023/03/19 01:34:37;;;;;;;7.60;7.10;;;13.00;99.90;;;;;;4922343;29;20484;-77
2023/03/19 01:37:06;;;;;;;6.70;6.33;;;13.10;99.90;;;;;;4920484;29;20457;-76
2023/03/19 01:39:34;;;;;;;7.37;6.93;;;13.20;99.90;;;;;;4918792;29;20478;-78
2023/03/19 01:42:03;;;;;;;6.50;6.10;;;13.10;99.90;;;;;;4921445;29;20470;-80
2023/03/19 01:44:33;;;;;;;6.90;6.50;;;13.20;99.90;;;;;;4921890;29;20490;-80
2023/03/19 01:47:05;;;;;;;7.30;6.90;;;13.20;99.90;;;;;;4921156;29;20462;-78
2023/03/19 01:49:35;;;;;;;7.70;7.20;;;13.20;99.90;;;;;;4906296;29;20469;-78
2023/03/19 01:52:04;;;;;;;7.73;7.43;;;13.20;99.90;;;;;;4919972;29;20898;-78
2023/03/19 01:54:33;;;;;;;8.80;8.00;;;13.20;99.90;;;;;;4922245;29;20551;-80
2023/03/19 01:57:05;;;;;;;8.67;8.27;;;13.20;99.90;;;;;;4919116;29;20471;-78
2023/03/19 01:59:37;;;;;;;9.20;8.73;;;13.10;99.90;;;;;;4921203;29;20463;-77
2023/03/19 02:02:10;;;;;;;9.40;9.00;;;12.90;99.90;;;;;;4921604;29;20447;-80
2023/03/19 02:04:41;;;;;;;10.43;9.93;;;12.80;1.00;;;;;;4921235;29;20492;-81
2023/03/19 02:07:11;;;;;;;12.27;11.57;;;12.70;9.20;;;;;;4919818;29;20532;-80
2023/03/19 02:09:40;;;;;;;12.50;12.00;;;12.80;99.90;;;;;;4920495;29;20519;-76
2023/03/19 02:12:09;;;;;;;13.47;12.80;;;12.70;1.00;;;;;;4921527;29;20469;-78
2023/03/19 02:14:37;;;;;;;13.53;13.00;;;12.60;99.90;;;;;;4918613;29;20487;-78
2023/03/19 02:17:07;;;;;;;14.33;13.63;;;12.50;94.40;;;;;;4919935;29;20461;-76
2023/03/19 02:19:42;;;;;;;15.47;14.60;;;12.60;99.90;;;;;;4920684;29;20567;-79
2023/03/19 02:22:12;;;;;;;14.40;13.70;;;12.60;99.90;;;;;;4919741;29;20463;-77
2023/03/19 02:24:49;;;;;;;14.90;14.30;;;12.50;20.10;;;;;;4922112;29;20497;-78
2023/03/19 02:27:18;;;;;;;15.23;14.47;;;12.40;99.90;;;;;;4919499;29;20470;-81
2023/03/19 02:29:46;;;;;;;15.30;14.40;;;12.40;99.90;;;;;;4918815;29;20459;-79
2023/03/19 02:32:16;;;;;;;15.10;14.30;;;12.40;1.00;;;;;;4922101;29;20465;-79
2023/03/19 02:34:45;;;;;;;15.40;14.60;;;12.50;99.90;;;;;;4923748;29;20484;-78
2023/03/19 02:37:19;;;;;;;14.80;14.20;;;12.40;99.90;;;;;;4920711;29;21042;-81
2023/03/19 02:39:54;;;;;;;14.57;13.97;;;12.40;99.90;;;;;;4920668;29;20501;-76
2023/03/19 02:42:27;;;;;;;15.27;14.67;;;12.40;99.90;;;;;;4922487;29;20454;-78
2023/03/19 02:44:55;;;;;;;15.20;14.50;;;12.30;1.00;;;;;;4903832;29;21426;-80
2023/03/19 02:47:24;;;;;;;14.63;13.90;;;12.30;99.90;;;;;;4922049;29;20541;-79
2023/03/19 02:49:52;;;;;;;14.80;14.00;;;12.30;99.90;;;;;;4921075;29;20474;-81
2023/03/19 02:52:21;;;;;;;15.20;14.50;;;12.30;99.90;;;;;;4920677;29;20507;-80
2023/03/19 02:54:49;;;;;;;14.30;13.80;;;12.30;1.00;;;;;;4923250;29;20562;-81
2023/03/19 02:57:17;;;;;;;14.40;13.80;;;12.30;1.00;;;;;;4922159;29;20969;-78
2023/03/19 02:59:47;;;;;;;14.40;13.77;;;12.30;99.90;;;;;;4919718;29;20456;-78
2023/03/19 03:02:15;;;;;;;15.83;15.13;;;12.40;99.90;;;;;;4920237;29;20477;-80
2023/03/19 03:04:43;;;;;;;13.60;12.90;;;12.40;1.00;;;;;;4919171;29;20510;-79
2023/03/19 03:07:11;;;;;;;14.13;13.23;;;12.30;1.00;;;;;;4920161;29;20462;-79
2023/03/19 03:09:40;;;;;;;13.70;13.20;;;12.30;90.20;;;;;;4920293;29;20487;-79
2023/03/19 03:12:09;;;;;;;13.60;13.10;;;12.30;99.90;;;;;;4919545;29;20565;-80
2023/03/19 03:14:37;;;;;;;13.87;13.37;;;12.30;99.90;;;;;;4920288;29;20489;-75
2023/03/19 03:17:07;;;;;;;14.20;13.40;;;12.20;99.90;;;;;;4918959;29;20471;-78
2023/03/19 03:19:35;;;;;;;13.03;12.53;;;12.30;99.90;;;;;;4919845;29;20474;-81
2023/03/19 03:22:04;;;;;;;12.97;12.57;;;12.30;50.20;;;;;;4906629;29;20829;-79
2023/03/19 03:24:32;;;;;;;14.70;14.13;;;12.30;1.00;;;;;;4921857;29;21379;-81
2023/03/19 03:27:00;;;;;;;14.77;13.97;;;12.30;80.10;;;;;;4920050;29;20523;-79
2023/03/19 03:29:29;;;;;;;14.93;14.03;;;12.30;80.00;;;;;;4919216;29;21627;-79
2023/03/19 03:31:57;;;;;;;14.63;14.03;;;12.40;94.40;;;;;;4926584;29;20529;-82
2023/03/19 03:34:26;;;;;;;14.00;13.60;;;12.30;1.00;;;;;;4920251;29;20489;-77
2023/03/19 03:36:54;;;;;;;14.00;13.50;;;12.40;1.00;;;;;;4923885;29;20556;-80
2023/03/19 03:39:22;;;;;;;14.10;13.60;;;12.50;99.90;;;;;;4919480;29;20533;-80
2023/03/19 03:41:51;;;;;;;13.97;13.43;;;12.50;99.90;;;;;;4915592;29;20525;-80
2023/03/19 03:44:20;;;;;;;14.70;14.20;;;12.50;99.90;;;;;;4920485;29;20494;-78
2023/03/19 03:46:48;;;;;;;14.47;13.90;;;12.50;1.00;;;;;;4921375;29;20520;-79
2023/03/19 03:49:16;;;;;;;14.50;14.00;;;12.50;99.90;;;;;;4918456;29;20455;-78
2023/03/19 03:51:45;;;;;;;14.60;13.80;;;12.40;1.00;;;;;;4901810;29;20529;-80
2023/03/19 03:54:13;;;;;;;15.90;15.10;;;12.40;1.00;;;;;;4904088;29;20577;-80
2023/03/19 03:56:42;;;;;;;14.10;13.60;;;12.40;99.90;;;;;;4920038;29;20463;-81
2023/03/19 03:59:10;;;;;;;14.47;13.87;;;12.40;99.90;;;;;;4920821;29;21087;-80
2023/03/19 04:01:38;;;;;;;13.93;13.53;;;12.40;99.90;;;;;;4919428;29;20450;-80
2023/03/19 04:04:06;;;;;;;13.73;13.20;;;12.40;53.20;;;;;;4922562;29;20475;-82
2023/03/19 04:06:34;;;;;;;13.37;12.90;;;12.40;98.40;;;;;;4918944;29;20490;-80
2023/03/19 04:09:06;;;;;;;14.27;13.60;;;12.30;90.20;;;;;;4923069;29;20470;-80
2023/03/19 04:11:35;;;;;;;13.57;12.90;;;12.30;38.90;;;;;;4925602;29;20489;-80
2023/03/19 04:14:03;;;;;;;13.50;12.93;;;12.30;89.70;;;;;;4926084;29;20973;-81
2023/03/19 04:16:31;;;;;;;13.50;12.90;;;12.30;92.10;;;;;;4907203;29;20913;-77
2023/03/19 04:18:59;;;;;;;14.20;13.50;;;12.30;99.90;;;;;;4919569;29;20488;-80
2023/03/19 04:21:28;;;;;;;13.10;12.60;;;12.30;3.90;;;;;;4922601;29;20454;-79
2023/03/19 04:23:56;;;;;;;13.73;13.20;;;12.40;1.00;;;;;;4908748;29;20484;-81
2023/03/19 04:26:26;;;;;;;13.07;12.47;;;12.40;1.00;;;;;;4920646;29;20496;-80
2023/03/19 04:28:54;;;;;;;12.90;12.40;;;12.40;1.00;;;;;;4930513;29;20462;-81
2023/03/19 04:31:22;;;;;;;13.50;13.00;;;12.30;1.00;;;;;;4914500;29;20470;-82
2023/03/19 04:33:51;;;;;;;13.53;13.00;;;12.40;1.00;;;;;;4925300;29;20489;-80
2023/03/19 04:36:19;;;;;;;13.47;12.97;;;12.40;1.00;;;;;;4924938;29;20466;-82
2023/03/19 04:38:47;;;;;;;12.97;12.47;;;12.20;1.00;;;;;;4926855;29;20466;-82
2023/03/19 04:41:16;;;;;;;12.77;12.37;;;12.20;1.00;;;;;;4925338;29;20525;-82
2023/03/19 04:43:45;;;;;;;12.83;12.33;;;12.20;99.90;;;;;;4923920;29;20514;-79
2023/03/19 04:46:13;;;;;;;12.20;11.70;;;12.20;99.90;;;;;;4924040;29;20478;-78
2023/03/19 04:48:41;;;;;;;12.47;12.07;;;12.10;99.90;;;;;;4927369;29;20513;-80
2023/03/19 04:51:10;;;;;;;12.30;11.83;;;12.20;99.90;;;;;;4924878;29;20467;-80
2023/03/19 04:53:38;;;;;;;12.83;12.23;;;12.30;99.90;;;;;;4915996;29;20489;-81
2023/03/19 04:56:08;;;;;;;12.23;11.70;;;12.30;32.60;;;;;;4923232;29;20520;-76
2023/03/19 04:58:36;;;;;;;12.47;12.03;;;12.20;40.00;;;;;;4924470;29;20981;-82
2023/03/19 05:01:05;;;;;;;13.47;12.90;;;12.20;4.50;;;;;;4917912;29;20569;-78
2023/03/19 05:03:35;;;;;;;13.00;12.50;;;12.20;18.50;;;;;;4920295;29;20483;-80
2023/03/19 05:06:03;;;;;;;13.90;13.30;;;12.20;3.30;;;;;;4908494;29;21061;-79
2023/03/19 05:08:31;;;;;;;12.70;12.30;;;12.20;1.00;;;;;;4921568;29;20495;-80
2023/03/19 05:10:59;;;;;;;12.90;12.30;;;12.20;1.00;;;;;;4919623;29;20464;-82
2023/03/19 05:13:28;;;;;;;13.30;12.70;;;12.20;1.00;;;;;;4924719;29;20480;-79
2023/03/19 05:15:56;;;;;;;12.67;12.17;;;12.10;1.00;;;;;;4905615;29;20476;-79
2023/03/19 05:18:26;;;;;;;12.10;11.60;;;12.20;1.00;;;;;;4921259;29;20469;-81
2023/03/19 05:20:54;;;;;;;12.60;12.10;;;12.20;1.00;;;;;;4923138;29;20464;-81
2023/03/19 05:23:23;;;;;;;12.00;11.50;;;12.20;1.00;;;;;;4902572;29;20481;-81
2023/03/19 05:25:51;;;;;;;12.00;11.50;;;12.20;1.00;;;;;;4920134;29;20490;-80
2023/03/19 05:28:19;;;;;;;11.50;11.00;;;12.20;1.00;;;;;;4917788;29;20541;-81
2023/03/19 05:30:47;;;;;;;12.60;11.70;;;12.20;1.00;;;;;;4919253;29;20520;-78
2023/03/19 05:33:16;;;;;;;11.23;10.87;;;12.20;1.00;;;;;;4918321;29;20473;-81
2023/03/19 05:35:45;;;;;;;11.40;10.83;;;12.10;1.00;;;;;;4927292;29;20461;-81
2023/03/19 05:38:14;;;;;;;11.60;11.00;;;12.20;1.00;;;;;;4919714;29;20455;-80
2023/03/19 05:40:42;;;;;;;10.80;10.50;;;12.20;1.00;;;;;;4898753;29;20478;-84
2023/03/19 05:43:11;;;;;;;11.83;11.13;;;12.10;1.00;;;;;;4922343;29;21024;-79
2023/03/19 05:45:39;;;;;;;12.07;11.57;;;12.20;1.00;;;;;;4905568;29;20465;-81
2023/03/19 05:48:07;;;;;;;11.73;11.30;;;12.10;1.00;;;;;;4921687;29;20492;-81
2023/03/19 05:50:36;;;;;;;11.00;10.50;;;12.10;1.00;;;;;;4923612;29;20454;-80
2023/03/19 05:53:05;;;;;;;10.80;10.40;;;12.10;1.00;;;;;;4924603;29;20486;-79
2023/03/19 05:55:33;;;;;;;10.87;10.43;;;12.10;1.00;;;;;;4926129;29;20460;-80
2023/03/19 05:58:02;;;;;;;13.00;12.17;;;12.10;1.00;;;;;;4921186;29;21211;-83
2023/03/19 06:00:30;;;;;;;11.60;11.10;;;12.00;15.00;;;;;;4922099;29;20529;-82
2023/03/19 06:02:58;;;;;;;11.03;10.70;;;12.00;1.00;;;;;;4921850;29;20553;-79
2023/03/19 06:05:26;;;;;;;10.77;10.27;;;12.10;1.00;;;;;;4922512;29;20467;-80
2023/03/19 06:07:55;;;;;;;11.30;10.80;;;12.20;1.00;;;;;;4925290;29;20909;-80
2023/03/19 06:10:24;;;;;;;12.60;11.90;;;12.20;1.00;;;;;;4923465;29;20999;-83
2023/03/19 06:12:52;;;;;;;11.90;11.40;;;12.20;1.00;;;;;;4912528;29;20839;-83
2023/03/19 06:15:21;;;;;;;11.17;10.60;;;12.30;1.00;;;;;;4922712;29;20487;-83
2023/03/19 06:17:49;;;;;;;11.13;10.73;;;12.20;1.00;;;;;;4923492;29;20819;-84
2023/03/19 06:20:17;;;;;;;11.57;11.17;;;12.10;79.10;;;;;;4923207;29;20511;-83
2023/03/19 06:22:46;;;;;;;14.20;13.50;;;12.00;99.90;;;;;;4922146;29;20465;-81
2023/03/19 06:25:14;;;;;;;11.63;11.23;;;12.10;99.90;;;;;;4916425;29;20461;-78
2023/03/19 06:27:44;;;;;;;11.07;10.67;;;12.00;28.20;;;;;;4923832;29;20848;-79
2023/03/19 06:30:13;;;;;;;11.43;10.93;;;12.10;1.00;;;;;;4922469;29;21489;-80
2023/03/19 06:32:42;;;;;;;11.47;11.03;;;12.10;1.00;;;;;;4922026;29;20458;-80
2023/03/19 06:35:13;;;;;;;11.37;10.97;;;12.10;1.00;;;;;;4919002;29;20459;-83
2023/03/19 06:37:42;;;;;;;11.23;10.83;;;12.10;1.00;;;;;;4924184;29;20470;-79
2023/03/19 06:40:11;;;;;;;10.50;10.00;;;12.10;1.00;;;;;;4920633;29;20483;-81
2023/03/19 06:42:39;;;;;;;11.13;10.73;;;12.20;1.00;;;;;;4921844;29;20470;-82
2023/03/19 06:45:09;;;;;;;11.00;10.60;;;12.20;1.00;;;;;;4919733;29;20472;-81
2023/03/19 06:47:37;;;;;;;10.63;10.13;;;12.20;1.00;;;;;;4924856;29;21106;-84
2023/03/19 06:50:07;;;;;;;10.90;10.40;;;12.20;1.00;;;;;;4920128;29;20557;-80
2023/03/19 06:52:35;;;;;;;9.90;9.60;;;12.20;1.00;;;;;;4921952;29;20482;-79
2023/03/19 06:55:04;;;;;;;10.10;9.80;;;12.20;1.00;;;;;;4921680;29;20469;-82
2023/03/19 06:57:32;;;;;;;10.33;9.90;;;12.20;1.00;;;;;;4923462;29;20485;-83
2023/03/19 07:00:00;;;;;;;9.50;9.20;;;12.20;1.00;;;;;;4919337;29;20458;-81
2023/03/19 07:02:30;;;;;;;9.90;9.60;;;12.20;1.00;;;;;;4917401;29;20467;-77
2023/03/19 07:04:58;;;;;;;10.10;9.80;;;12.20;1.00;;;;;;4914228;29;20485;-80
2023/03/19 07:07:26;;;;;;;9.63;9.33;;;12.30;1.00;;;;;;4915736;29;20484;-82
2023/03/19 07:09:54;;;;;;;10.90;10.50;;;12.20;1.00;;;;;;4904559;29;20602;-81
2023/03/19 07:12:22;;;;;;;10.50;10.10;;;12.20;1.00;;;;;;4919031;29;20459;-81
2023/03/19 07:14:51;;;;;;;10.30;10.00;;;12.20;1.00;;;;;;4921229;29;20477;-81
2023/03/19 07:17:19;;;;;;;10.60;10.17;;;12.20;1.00;;;;;;4917296;29;20458;-83
2023/03/19 07:19:48;;;;;;;10.83;10.30;;;12.20;1.00;;;;;;4920083;29;20838;-83
2023/03/19 07:22:17;;;;;;;11.35;10.70;;;12.30;1.00;;;;;;4917501;29;20472;-78
2023/03/19 07:24:45;;;;;;;10.90;10.50;;;12.10;1.00;;;;;;4918922;29;20502;-79
2023/03/19 07:27:13;;;;;;;10.90;10.50;;;12.20;1.00;;;;;;4903482;29;20485;-80
2023/03/19 07:29:41;;;;;;;10.20;10.00;;;12.30;1.00;;;;;;4912355;29;20461;-77
2023/03/19 07:32:10;;;;;;;10.43;10.13;;;12.40;1.00;;;;;;4911631;29;20469;-81
2023/03/19 07:34:38;;;;;;;10.00;9.70;;;12.50;1.00;;;;;;4913374;29;20489;-78
2023/03/19 07:37:08;;;;;;;10.53;9.93;;;12.50;1.00;;;;;;4916206;29;20469;-79
2023/03/19 07:39:36;;;;;;;10.47;10.07;;;12.60;1.00;;;;;;4920954;29;20467;-79
2023/03/19 07:42:04;;;;;;;9.70;9.40;;;12.60;1.00;;;;;;4917632;29;20541;-79
2023/03/19 07:44:33;;;;;;;11.13;10.73;;;12.60;1.00;;;;;;4906966;29;20488;-81
2023/03/19 07:47:01;;;;;;;10.80;10.40;;;12.50;1.00;;;;;;4923582;29;20485;-80
2023/03/19 07:49:30;;;;;;;10.27;9.87;;;12.70;1.00;;;;;;4920208;29;20448;-81
2023/03/19 07:51:58;;;;;;;9.93;9.53;;;12.80;1.00;;;;;;4920578;29;20460;-80
2023/03/19 07:54:28;;;;;;;9.90;9.50;;;12.80;1.00;;;;;;4918492;29;21093;-82
2023/03/19 07:56:56;;;;;;;10.07;9.53;;;12.90;99.90;;;;;;4916239;29;20460;-81
2023/03/19 07:59:24;;;;;;;10.18;9.77;;;12.90;99.90;;;;;;4916887;29;20498;-83
2023/03/19 08:01:52;;;;;;;9.97;9.47;;;12.90;99.90;;;;;;4915009;29;20212;-82
2023/03/19 08:04:21;;;;;;;9.80;9.50;;;13.00;99.90;;;;;;4919783;29;20479;-80
2023/03/19 08:06:49;;;;;;;10.00;9.60;;;13.00;99.90;;;;;;4913459;29;21164;-80
2023/03/19 08:09:18;;;;;;;10.20;9.90;;;13.00;99.90;;;;;;4917584;29;20585;-78
2023/03/19 08:11:47;;;;;;;10.07;9.67;;;13.00;99.90;;;;;;4911663;29;20466;-79
2023/03/19 08:14:18;;;;;;;9.70;9.40;;;13.10;99.90;;;;;;4904017;29;20494;-85
2023/03/19 08:16:46;;;;;;;9.90;9.60;;;13.10;99.90;;;;;;4915019;29;20458;-78
2023/03/19 08:19:15;;;;;;;10.37;9.97;;;13.20;99.90;;;;;;4902450;29;20471;-79
2023/03/19 08:21:43;;;;;;;9.47;9.27;;;13.30;99.90;;;;;;4914102;29;20456;-78
2023/03/19 08:24:11;;;;;;;9.60;9.30;;;13.30;99.90;;;;;;4910915;29;20474;-80
2023/03/19 08:26:40;;;;;;;10.00;9.70;;;13.30;99.90;;;;;;4904864;29;20553;-81
2023/03/19 08:29:11;;;;;;;10.10;9.80;;;13.40;99.90;;;;;;4901062;29;21021;-81
2023/03/19 08:31:40;;;;;;;10.00;9.70;;;13.40;99.90;;;;;;4911786;29;20469;-78
2023/03/19 08:34:09;;;;;;;10.40;9.80;;;13.50;99.90;;;;;;4912565;29;21020;-80
2023/03/19 08:36:37;;;;;;;10.13;9.83;;;13.60;99.90;;;;;;4915317;29;20471;-80
2023/03/19 08:39:05;;;;;;;11.00;10.40;;;13.60;99.90;;;;;;4916656;29;20462;-77
2023/03/19 08:41:34;;;;;;;10.47;10.03;;;13.70;99.90;;;;;;4916776;29;20457;-80
2023/03/19 08:44:02;;;;;;;11.03;10.70;;;14.00;99.90;;;;;;4916744;29;20480;-81
2023/03/19 08:46:32;;;;;;;10.97;10.50;;;14.00;99.90;;;;;;4918846;29;20474;-77
2023/03/19 08:49:00;;;;;;;10.40;10.10;;;14.10;99.90;;;;;;4919367;29;20476;-79
2023/03/19 08:51:30;;;;;;;10.10;9.80;;;14.10;99.90;;;;;;4913085;29;20951;-78
2023/03/19 08:53:58;;;;;;;10.43;10.03;;;14.20;99.90;;;;;;4919482;29;21118;-79
2023/03/19 08:56:26;;;;;;;11.00;10.50;;;14.20;99.90;;;;;;4921519;29;20468;-81
2023/03/19 08:58:56;;;;;;;10.40;10.10;;;14.40;99.90;;;;;;4909413;29;20487;-81
2023/03/19 09:01:24;;;;;;;10.63;10.33;;;14.40;99.90;;;;;;4924568;29;20839;-81
2023/03/19 09:03:54;;;;;;;10.40;10.10;;;14.40;99.90;;;;;;4921401;29;20929;-80
2023/03/19 09:06:22;;;;;;;11.00;10.60;;;14.40;99.90;;;;;;4921185;29;21009;-78
2023/03/19 09:08:50;;;;;;;10.83;10.57;;;14.60;99.90;;;;;;4923282;29;20544;-80
2023/03/19 09:11:18;;;;;;;10.40;10.10;;;14.60;99.90;;;;;;4920563;29;20465;-83
2023/03/19 09:13:46;;;;;;;10.40;9.90;;;14.70;99.90;;;;;;4923400;29;20490;-81
2023/03/19 09:16:15;;;;;;;9.60;9.30;;;14.60;99.90;;;;;;4925311;29;21008;-80
2023/03/19 09:18:43;;;;;;;10.00;9.37;;;14.60;99.90;;;;;;4920998;29;20464;-82
2023/03/19 09:21:13;;;;;;;9.83;9.53;;;14.50;99.90;;;;;;4920291;29;20453;-80
2023/03/19 09:23:41;;;;;;;9.57;9.27;;;14.70;99.90;;;;;;4920721;29;20488;-80
2023/03/19 09:26:09;;;;;;;9.20;8.70;;;14.70;99.90;;;;;;4921903;29;20527;-79
2023/03/19 09:28:38;;;;;;;9.53;9.13;;;14.70;99.90;;;;;;4916885;29;20958;-79
2023/03/19 09:31:10;;;;;;;9.90;9.60;;;14.80;99.90;;;;;;4919549;29;20464;-77
2023/03/19 09:33:38;;;;;;;9.57;9.20;;;15.80;99.90;;;;;;4918772;29;20480;-79
2023/03/19 09:36:07;;;;;;;9.20;9.00;;;17.10;99.90;;;;;;4919130;29;21520;-81
2023/03/19 09:38:38;;;;;;;9.80;9.50;;;17.90;99.90;;;;;;4931961;29;20551;-83
2023/03/19 09:41:10;;;;;;;10.33;9.80;;;19.20;99.90;;;;;;4908194;29;20560;-80
2023/03/19 09:43:59;;;;;;;8.77;8.53;;;19.80;99.90;;;;;;4921248;29;20488;-81
2023/03/19 09:46:34;;;;;;;8.30;8.00;;;20.50;99.90;;;;;;4918186;29;20458;-81
2023/03/19 09:49:11;;;;;;;7.97;7.77;;;21.00;99.90;;;;;;4918068;29;21029;-81
2023/03/19 09:51:45;;;;;;;7.63;7.40;;;20.70;99.90;;;;;;4923511;29;20997;-82
2023/03/19 09:54:27;;;;;;;8.10;7.90;;;20.70;99.90;;;;;;4913859;29;20477;-78
2023/03/19 09:56:56;;;;;;;8.03;7.70;;;21.20;99.90;;;;;;4921089;29;20453;-82
2023/03/19 09:59:26;;;;;;;7.50;7.30;;;20.60;99.90;;;;;;4919546;29;20477;-81
2023/03/19 10:02:17;;;;;;;7.10;6.90;;;20.30;99.90;;;;;;4925475;29;20469;-82
2023/03/19 10:04:54;;;;;;;7.47;7.27;;;19.60;99.90;;;;;;4925366;29;20567;-81
2023/03/19 10:07:34;;;;;;;8.33;7.83;;;18.70;99.90;;;;;;4922958;29;21616;-79
2023/03/19 10:10:35;;;;;;;7.40;7.00;;;18.40;99.90;;;;;;4902646;29;20487;-81
2023/03/19 10:13:11;;;;;;;8.40;8.10;;;18.60;99.90;;;;;;4917814;29;20485;-79
2023/03/19 10:15:40;;;;;;;7.67;7.47;;;19.00;99.90;;;;;;4918645;29;20480;-79
2023/03/19 10:18:12;;;;;;;7.57;7.27;;;19.50;99.90;;;;;;4919426;29;20468;-80
2023/03/19 10:20:48;;;;;;;8.10;7.67;;;19.40;99.90;;;;;;4920406;29;20468;-76
2023/03/19 10:23:32;;;;;;;7.17;6.97;;;19.50;99.90;;;;;;4917734;29;20479;-81
2023/03/19 10:26:04;;;;;;;7.90;7.60;;;19.70;99.90;;;;;;4912467;29;20472;-79
2023/03/19 10:28:32;;;;;;;7.73;7.23;;;19.90;99.90;;;;;;4914066;29;20465;-80
2023/03/19 10:31:13;;;;;;;8.10;7.90;;;20.60;99.90;;;;;;4918739;29;20457;-83
2023/03/19 10:33:44;;;;;;;8.63;8.17;;;20.40;99.90;;;;;;4915198;29;20483;-77
2023/03/19 10:36:13;;;;;;;8.33;8.13;;;21.00;99.90;;;;;;4897447;29;20470;-82
2023/03/19 10:38:43;;;;;;;7.73;7.53;;;21.50;99.90;;;;;;4916833;29;20472;-78
2023/03/19 10:41:27;;;;;;;7.10;6.70;;;22.30;99.90;;;;;;4911210;29;20480;-80
2023/03/19 10:43:59;;;;;;;6.63;6.33;;;22.00;99.90;;;;;;4913280;29;20472;-84
2023/03/19 10:46:27;;;;;;;7.30;6.90;;;21.60;99.90;;;;;;4916288;29;20450;-80
2023/03/19 10:48:58;;;;;;;6.73;6.43;;;21.70;99.90;;;;;;4916565;29;20908;-83
2023/03/19 10:51:27;;;;;;;6.60;6.40;;;22.00;99.90;;;;;;4918437;29;20461;-82
2023/03/19 10:53:56;;;;;;;6.53;6.23;;;21.90;99.90;;;;;;4914868;29;20487;-79
2023/03/19 10:56:29;;;;;;;6.33;6.13;;;21.50;99.90;;;;;;4919946;29;20479;-80
2023/03/19 10:59:00;;;;;;;5.70;5.50;;;21.50;99.90;;;;;;4920928;29;20461;-79
2023/03/19 11:01:32;;;;;;;6.07;5.67;;;22.10;99.90;;;;;;4910584;29;20457;-81
2023/03/19 11:04:02;;;;;;;5.40;5.20;;;22.10;99.90;;;;;;4919292;29;20575;-79
2023/03/19 11:06:33;;;;;;;6.10;5.80;;;21.30;99.90;;;;;;4922239;29;21110;-79
2023/03/19 11:09:13;;;;;;;6.13;5.93;;;20.20;99.90;;;;;;4921882;29;21320;-78
2023/03/19 11:11:46;;;;;;;6.23;5.93;;;19.80;99.90;;;;;;4921628;29;20465;-79
2023/03/19 11:14:20;;;;;;;7.10;6.80;;;19.30;99.90;;;;;;4916129;29;20614;-79
2023/03/19 11:16:56;;;;;;;6.60;6.10;;;19.30;99.90;;;;;;4922963;29;20475;-78
2023/03/19 11:19:26;;;;;;;7.03;6.70;;;19.40;99.90;;;;;;4902612;29;20459;-79
2023/03/19 11:22:08;;;;;;;7.00;6.80;;;19.20;99.90;;;;;;4916372;29;20579;-81
2023/03/19 11:24:38;;;;;;;7.80;7.60;;;20.00;99.90;;;;;;4917214;29;22365;-79
2023/03/19 11:27:08;;;;;;;6.30;5.87;;;19.90;99.90;;;;;;4914984;29;20528;-79
2023/03/19 11:29:41;;;;;;;6.33;5.93;;;20.00;99.90;;;;;;4914723;29;20851;-78
2023/03/19 11:32:31;;;;;;;6.77;6.37;;;20.40;99.90;;;;;;4916190;29;20495;-80
2023/03/19 11:35:03;;;;;;;7.27;6.90;;;20.00;99.90;;;;;;4914409;29;21084;-79
2023/03/19 11:37:48;;;;;;;8.47;8.07;;;19.30;99.90;;;;;;4915609;29;20465;-81
2023/03/19 11:40:24;;;;;;;8.73;8.43;;;19.10;99.90;;;;;;4898949;29;20473;-79
2023/03/19 11:43:06;;;;;;;7.23;6.80;;;18.80;99.90;;;;;;4913865;29;20449;-79
2023/03/19 11:45:39;;;;;;;7.60;7.27;;;18.60;99.10;;;;;;4917915;29;20471;-79
2023/03/19 11:48:29;;;;;;;9.60;9.00;;;18.30;98.00;;;;;;4920983;29;20491;-77
2023/03/19 11:51:00;;;;;;;7.30;7.00;;;18.20;98.50;;;;;;4919201;29;20495;-80
2023/03/19 11:53:33;;;;;;;7.47;7.10;;;18.20;98.40;;;;;;4915049;29;20516;-77
2023/03/19 11:56:10;;;;;;;8.70;8.10;;;18.20;99.10;;;;;;4919843;29;20458;-81
2023/03/19 11:59:08;;;;;;;7.00;6.70;;;18.40;99.90;;;;;;4917996;29;20541;-77
2023/03/19 12:02:10;;;;;;;7.97;7.47;;;18.50;99.90;;;;;;4917982;29;20739;-79
2023/03/19 12:05:00;;;;;;;5.50;5.10;;;18.50;99.90;;;;;;4911532;29;20496;-78
2023/03/19 12:07:34;;;;;;;5.77;5.57;;;18.30;99.90;;;;;;4922325;29;20450;-78
2023/03/19 12:10:20;;;;;;;8.10;7.73;;;18.20;99.90;;;;;;4920626;29;20521;-79
2023/03/19 12:12:57;;;;;;;7.07;6.67;;;18.10;99.80;;;;;;4916025;29;20459;-80
2023/03/19 12:15:31;;;;;;;7.23;6.93;;;18.20;99.90;;;;;;4910992;29;20615;-80
2023/03/19 12:18:13;;;;;;;6.63;6.43;;;18.30;99.90;;;;;;4914604;29;21013;-77
2023/03/19 12:20:52;;;;;;;6.90;6.73;;;18.30;99.90;;;;;;4915773;29;21100;-77
2023/03/19 12:23:33;;;;;;;7.40;7.20;;;18.20;99.90;;;;;;4917797;29;20584;-80
2023/03/19 12:26:07;;;;;;;6.70;6.50;;;18.00;99.70;;;;;;4915050;29;20471;-79
2023/03/19 12:28:41;;;;;;;7.77;7.20;;;17.90;99.80;;;;;;4911727;29;20469;-79
2023/03/19 12:31:30;;;;;;;7.70;7.30;;;18.00;99.90;;;;;;4916072;29;20647;-78
2023/03/19 12:34:22;;;;;;;6.67;6.27;;;18.00;99.90;;;;;;4914394;29;20485;-79
2023/03/19 12:36:55;;;;;;;6.97;6.63;;;18.10;99.90;;;;;;4900291;29;20591;-79
2023/03/19 12:39:29;;;;;;;7.00;6.80;;;18.10;99.90;;;;;;4919525;29;20475;-74
2023/03/19 12:41:59;;;;;;;7.33;7.03;;;17.90;99.80;;;;;;4920045;29;20463;-79
2023/03/19 12:44:32;;;;;;;6.87;6.77;;;17.80;99.70;;;;;;4921110;29;20491;-78
2023/03/19 12:47:05;;;;;;;7.10;6.70;;;17.70;99.90;;;;;;4916961;29;20460;-78
2023/03/19 12:49:37;;;;;;;6.70;6.30;;;17.60;99.70;;;;;;4925160;29;20459;-79
2023/03/19 12:52:13;;;;;;;6.47;6.10;;;17.60;99.90;;;;;;4920772;29;20580;-78
2023/03/19 12:54:48;;;;;;;6.70;6.40;;;17.50;99.50;;;;;;4924823;29;20466;-79